Date,TemperatureHighF,TemperatureAvgF,TemperatureLowF,DewpointHighF,DewpointAvgF,DewpointLowF,HumidityHigh,HumidityAvg,HumidityLow,PressureMaxIn,PressureMinIn,WindSpeedMaxMPH,WindSpeedAvgMPH,GustSpeedMaxMPH,PrecipitationSumIn
2013-1-1,75.0,65.2,56.0,-99.9,-99.9,-99.9,0,0,100,30.21,30.04,0,-999,0,0.00
2013-1-2,71.0,66.6,63.0,-99.9,-99.9,-99.9,0,0,100,30.07,29.99,0,-999,0,0.00
2013-1-3,73.0,64.6,60.0,-99.9,-99.9,-99.9,0,0,100,30.15,30.02,0,-999,0,0.00
2013-1-4,62.0,59.5,57.0,-99.9,-99.9,-99.9,0,0,100,30.27,30.13,0,-999,0,0.00
2013-1-5,73.0,63.1,57.0,-99.9,-99.9,-99.9,0,0,100,30.28,30.16,0,-999,0,0.00
2013-1-6,71.0,65.0,61.0,-99.9,-99.9,-99.9,0,0,100,30.20,30.06,0,-999,0,0.00
2013-1-7,66.0,63.0,59.0,-99.9,-99.9,-99.9,0,0,100,30.20,30.10,0,-999,0,0.00
2013-1-8,82.0,70.0,61.0,-99.9,-99.9,-99.9,0,0,100,30.21,30.11,0,-999,0,0.00
2013-1-9,83.0,74.0,68.0,-99.9,-99.9,-99.9,0,0,100,30.27,30.15,0,-999,0,0.00
2013-1-10,82.0,73.1,67.0,-99.9,-99.9,-99.9,0,0,100,30.28,30.19,0,-999,0,0.00
2013-1-11,83.0,71.2,64.0,-99.9,-99.9,-99.9,0,0,100,30.27,30.13,0,-999,0,0.00
2013-1-12,82.0,70.1,64.0,-99.9,-99.9,-99.9,0,0,100,30.18,30.07,0,-999,0,0.00
2013-1-13,79.0,69.6,64.0,-99.9,-99.9,-99.9,0,0,100,30.16,30.06,0,-999,0,0.00
2013-1-14,78.0,72.0,63.0,-99.9,-99.9,-99.9,0,0,100,30.17,30.11,0,-999,0,0.00
2013-1-15,78.0,68.8,61.0,-99.9,-99.9,-99.9,0,0,100,30.14,30.05,0,-999,0,0.00
2013-1-16,77.0,70.0,64.0,-99.9,-99.9,-99.9,0,0,100,30.11,30.00,0,-999,0,0.00
2013-1-17,72.0,64.4,58.0,-99.9,-99.9,-99.9,0,0,100,30.15,30.00,0,-999,0,0.00
2013-1-18,61.0,53.6,43.0,-99.9,-99.9,-99.9,0,0,100,30.31,30.14,0,-999,0,0.00
2013-1-19,74.0,63.4,55.0,-99.9,-99.9,-99.9,0,0,100,30.27,30.11,0,-999,0,0.00
2013-1-20,69.0,64.7,61.0,-99.9,-99.9,-99.9,0,0,100,30.17,30.03,0,-999,0,0.00
2013-1-21,67.0,64.9,63.0,-99.9,-99.9,-99.9,0,0,100,30.10,30.02,0,-999,0,0.00
2013-1-22,64.0,60.5,54.0,-99.9,-99.9,-99.9,0,0,100,30.28,30.07,0,-999,0,0.00
2013-1-23,67.0,57.2,49.0,-99.9,-99.9,-99.9,0,0,100,30.36,30.26,0,-999,0,0.00
2013-1-24,66.0,58.7,47.0,-99.9,-99.9,-99.9,0,0,100,30.34,30.24,0,-999,0,0.00
2013-1-25,67.0,61.1,50.0,-99.9,-99.9,-99.9,0,0,100,30.32,30.19,0,-999,0,0.00
2013-1-26,68.0,62.7,52.0,-99.9,-99.9,-99.9,0,0,100,30.28,30.17,0,-999,0,0.00
2013-1-27,77.0,64.5,55.0,-99.9,-99.9,-99.9,0,0,100,30.30,30.20,0,-999,0,0.00
2013-1-28,81.0,67.9,61.0,-99.9,-99.9,-99.9,0,0,100,30.31,30.20,0,-999,0,0.00
2013-1-29,82.0,69.7,61.0,-99.9,-99.9,-99.9,0,0,100,30.24,30.09,0,-999,0,0.00
2013-1-30,78.0,72.2,66.0,-99.9,-99.9,-99.9,0,0,100,30.10,29.91,0,-999,0,0.00
2013-1-31,72.0,58.1,55.0,-99.9,-99.9,-99.9,0,0,100,30.23,29.92,0,-999,0,0.00
2013-2-1,65.0,57.7,52.0,-99.9,-99.9,-99.9,0,0,100,30.36,30.22,0,-999,0,0.00
2013-2-2,65.0,57.1,47.0,-99.9,-99.9,-99.9,0,0,100,30.30,30.15,0,-999,0,0.00
2013-2-3,64.0,58.2,49.0,-99.9,-99.9,-99.9,0,0,100,30.20,30.10,0,-999,0,0.00
2013-2-4,66.0,59.4,49.0,-99.9,-99.9,-99.9,0,0,100,30.14,30.05,0,-999,0,0.00
2013-2-5,70.0,60.0,49.0,-99.9,-99.9,-99.9,0,0,100,30.09,30.00,0,-999,0,0.00
2013-2-6,76.0,65.8,59.0,-99.9,-99.9,-99.9,0,0,100,30.10,30.01,0,-999,0,0.00
2013-2-7,77.0,69.3,62.0,-99.9,-99.9,-99.9,0,0,100,30.06,29.91,0,-999,0,0.00
2013-2-8,71.0,66.2,62.0,-99.9,-99.9,-99.9,0,0,100,30.08,29.89,0,-999,0,0.00
2013-2-9,74.0,63.8,58.0,-99.9,-99.9,-99.9,0,0,100,30.19,30.06,0,-999,0,0.00
2013-2-10,80.0,68.6,60.0,-99.9,-99.9,-99.9,0,0,100,30.23,30.12,0,-999,0,0.00
2013-2-11,77.0,69.2,60.0,-99.9,-99.9,-99.9,0,0,100,30.19,30.08,0,-999,0,0.00
2013-2-12,77.0,71.1,65.0,-99.9,-99.9,-99.9,0,0,100,30.10,29.96,0,-999,0,0.00
2013-2-13,77.0,71.7,64.0,-99.9,-99.9,-99.9,0,0,100,29.99,29.87,0,-999,0,0.00
2013-2-14,66.0,62.8,60.0,-99.9,-99.9,-99.9,0,0,100,30.04,29.92,0,-999,0,0.00
2013-2-15,64.0,60.4,57.0,-99.9,-99.9,-99.9,0,0,100,30.08,29.96,0,-999,0,0.00
2013-2-16,64.0,59.9,57.0,-99.9,-99.9,-99.9,0,0,100,30.12,29.93,0,-999,0,0.00
2013-2-17,57.0,48.2,43.0,-99.9,-99.9,-99.9,0,0,100,30.34,30.11,0,-999,0,0.00
2013-2-18,68.0,52.8,36.0,-99.9,-99.9,-99.9,0,0,100,30.35,30.21,0,-999,0,0.00
2013-2-19,73.0,63.1,53.0,-99.9,-99.9,-99.9,0,0,100,30.21,30.09,0,-999,0,0.00
2013-2-20,69.0,65.0,61.0,-99.9,-99.9,-99.9,0,0,100,30.12,30.01,0,-999,0,0.00
2013-2-21,76.0,67.4,58.0,-99.9,-99.9,-99.9,0,0,100,30.11,29.99,0,-999,0,0.00
2013-2-22,80.0,70.5,62.0,-99.9,-99.9,-99.9,0,0,100,30.06,29.99,0,-999,0,0.00
2013-2-23,78.0,72.6,69.0,-99.9,-99.9,-99.9,0,0,100,30.01,29.90,0,-999,0,0.00
2013-2-24,75.0,70.2,68.0,-99.9,-99.9,-99.9,0,0,100,29.97,29.88,0,-999,0,0.00
2013-2-25,81.0,76.7,73.0,-99.9,-99.9,-99.9,0,0,100,29.88,29.78,0,-999,0,0.00
2013-2-26,76.0,71.8,67.0,-99.9,-99.9,-99.9,0,0,100,29.89,29.70,0,-999,0,0.00
2013-2-27,69.0,65.7,61.0,-99.9,-99.9,-99.9,0,0,100,29.98,29.88,0,-999,0,0.00
2013-2-28,67.0,64.2,62.0,-99.9,-99.9,-99.9,0,0,100,30.01,29.93,0,-999,0,0.00
2013-3-1,62.0,58.2,56.0,-99.9,-99.9,-99.9,0,0,100,30.03,29.92,0,-999,0,0.00
2013-3-2,57.0,54.1,47.0,-99.9,-99.9,-99.9,0,0,100,30.08,29.99,0,-999,0,0.00
2013-3-3,55.0,49.3,43.0,-99.9,-99.9,-99.9,0,0,100,30.16,29.98,0,-999,0,0.00
2013-3-4,57.0,51.6,42.0,-99.9,-99.9,-99.9,0,0,100,30.24,30.13,0,-999,0,0.00
2013-3-5,68.0,58.1,46.0,-99.9,-99.9,-99.9,0,0,100,30.17,30.05,0,-999,0,0.00
2013-3-6,66.0,58.9,54.0,-99.9,-99.9,-99.9,0,0,100,30.14,29.97,0,-999,0,0.00
2013-3-7,58.0,52.9,47.0,-99.9,-99.9,-99.9,0,0,100,30.24,30.12,0,-999,0,0.00
2013-3-8,64.0,56.5,46.0,-99.9,-99.9,-99.9,0,0,100,30.23,30.13,0,-999,0,0.00
2013-3-9,71.0,60.6,50.0,-99.9,-99.9,-99.9,0,0,100,30.21,30.12,0,-999,0,0.00
2013-3-10,78.0,64.2,56.0,-99.9,-99.9,-99.9,0,0,100,30.17,30.04,0,-999,0,0.00
2013-3-11,75.0,66.5,57.0,-99.9,-99.9,-99.9,0,0,100,30.10,29.91,0,-999,0,0.00
2013-3-12,69.0,64.2,59.0,-99.9,-99.9,-99.9,0,0,100,30.05,29.86,0,-999,0,0.00
2013-3-13,67.0,61.8,58.0,-99.9,-99.9,-99.9,0,0,100,30.19,30.04,0,-999,0,0.00
2013-3-14,62.0,58.0,52.0,-99.9,-99.9,-99.9,0,0,100,30.27,30.16,0,-999,0,0.00
2013-3-15,64.0,55.7,45.0,-99.9,-99.9,-99.9,0,0,100,30.29,30.16,0,-999,0,0.00
2013-3-16,68.0,60.6,52.0,-99.9,-99.9,-99.9,0,0,100,30.19,30.08,0,-999,0,0.00
2013-3-17,73.0,64.3,54.0,-99.9,-99.9,-99.9,0,0,100,30.13,30.00,0,-999,0,0.00
2013-3-18,75.0,67.5,61.0,-99.9,-99.9,-99.9,0,0,100,30.03,29.88,0,-999,0,0.00
2013-3-19,73.0,67.4,63.0,-99.9,-99.9,-99.9,0,0,100,30.02,29.88,0,-999,0,0.00
2013-3-20,70.0,66.4,62.0,-99.9,-99.9,-99.9,0,0,100,29.97,29.82,0,-999,0,0.00
2013-3-21,65.0,61.0,58.0,-99.9,-99.9,-99.9,0,0,100,30.00,29.87,0,-999,0,0.00
2013-3-22,75.0,62.6,47.0,-99.9,-99.9,-99.9,0,0,100,29.99,29.88,0,-999,0,0.00
2013-3-23,77.0,70.6,64.0,-99.9,-99.9,-99.9,0,0,100,29.97,29.80,0,-999,0,0.00
2013-3-24,76.0,72.5,69.0,-99.9,-99.9,-99.9,0,0,100,29.84,29.66,0,-999,0,0.00
2013-3-25,70.0,62.9,58.0,-99.9,-99.9,-99.9,0,0,100,30.06,29.76,0,-999,0,0.00
2013-3-26,61.0,54.4,50.0,-99.9,-99.9,-99.9,0,0,100,30.24,30.04,0,-999,0,0.00
2013-3-27,55.0,50.7,43.0,-99.9,-99.9,-99.9,0,0,100,30.34,30.21,0,-999,0,0.00
2013-3-28,63.0,54.4,42.0,-99.9,-99.9,-99.9,0,0,100,30.30,30.20,0,-999,0,0.00
2013-3-29,68.0,59.7,49.0,-99.9,-99.9,-99.9,0,0,100,30.32,30.19,0,-999,0,0.00
2013-3-30,69.0,62.5,53.0,-99.9,-99.9,-99.9,0,0,100,30.25,30.14,0,-999,0,0.00
2013-3-31,74.0,66.5,58.0,-99.9,-99.9,-99.9,0,0,100,30.18,30.02,0,-999,0,0.00
2013-4-1,72.0,68.8,65.0,-99.9,-99.9,-99.9,0,0,100,30.04,29.96,0,-999,0,0.00
2013-4-2,71.0,68.2,65.0,-99.9,-99.9,-99.9,0,0,100,30.10,30.01,0,-999,0,0.00
2013-4-3,83.0,71.8,63.0,-99.9,-99.9,-99.9,0,0,100,30.08,29.94,0,-999,0,0.00
2013-4-4,72.0,69.4,66.0,-99.9,-99.9,-99.9,0,0,100,30.06,29.86,0,-999,0,0.00
2013-4-5,69.0,67.2,63.0,-99.9,-99.9,-99.9,0,0,100,29.97,29.82,0,-999,0,0.00
2013-4-6,71.0,63.6,59.0,-99.9,-99.9,-99.9,0,0,100,30.10,29.97,0,-999,0,0.00
2013-4-7,78.0,68.5,60.0,-99.9,-99.9,-99.9,0,0,100,30.14,30.04,0,-999,0,0.00
2013-4-8,82.0,71.4,63.0,-99.9,-99.9,-99.9,0,0,100,30.12,30.03,0,-999,0,0.00
2013-4-9,82.0,72.2,63.0,-99.9,-99.9,-99.9,0,0,100,30.14,30.06,0,-999,0,0.00
2013-4-10,84.0,72.4,63.0,-99.9,-99.9,-99.9,0,0,100,30.10,29.96,0,-999,0,0.00
2013-4-11,85.0,76.6,70.0,-99.9,-99.9,-99.9,0,0,100,29.99,29.81,0,-999,0,0.00
2013-4-12,79.0,76.0,73.0,-99.9,-99.9,-99.9,0,0,100,29.92,29.80,0,-999,0,0.00
2013-4-13,77.0,73.6,70.0,-99.9,-99.9,-99.9,0,0,100,29.98,29.88,0,-999,0,0.00
2013-4-14,83.0,75.3,69.0,-99.9,-99.9,-99.9,0,0,100,30.00,29.85,0,-999,0,0.00
2013-4-15,80.0,74.1,68.0,-99.9,-99.9,-99.9,0,0,100,30.07,29.94,0,-999,0,0.00
2013-4-16,88.0,78.3,69.0,-99.9,-99.9,-99.9,0,0,100,30.13,30.02,0,-999,0,0.00
2013-4-17,85.0,76.0,67.0,-99.9,-99.9,-99.9,0,0,100,30.13,30.01,0,-999,0,0.00
2013-4-18,85.0,75.9,66.0,-99.9,-99.9,-99.9,0,0,100,30.04,29.94,0,-999,0,0.00
2013-4-19,85.0,77.9,71.0,-99.9,-99.9,-99.9,0,0,100,30.01,29.93,0,-999,0,0.00
2013-4-20,77.0,70.8,65.0,-99.9,-99.9,-99.9,0,0,100,30.13,29.96,0,-999,0,0.00
2013-4-21,80.0,69.8,62.0,-99.9,-99.9,-99.9,0,0,100,30.13,30.01,0,-999,0,0.00
2013-4-22,78.0,71.5,68.0,-99.9,-99.9,-99.9,0,0,100,30.08,29.96,0,-999,0,0.00
2013-4-23,83.0,72.4,66.0,-99.9,-99.9,-99.9,0,0,100,30.10,30.00,0,-999,0,0.00
2013-4-24,82.0,71.3,61.0,-99.9,-99.9,-99.9,0,0,100,30.14,30.07,0,-999,0,0.00
2013-4-25,78.0,73.1,65.0,-99.9,-99.9,-99.9,0,0,100,30.21,30.09,0,-999,0,0.00
2013-4-26,80.0,74.0,66.0,-99.9,-99.9,-99.9,0,0,100,30.24,30.14,0,-999,0,0.00
2013-4-27,84.0,75.7,67.0,-99.9,-99.9,-99.9,0,0,100,30.22,30.06,0,-999,0,0.00
2013-4-28,86.0,74.8,67.0,-99.9,-99.9,-99.9,0,0,100,30.12,29.96,0,-999,0,0.00
2013-4-29,81.0,75.5,68.0,-99.9,-99.9,-99.9,0,0,100,30.02,29.90,0,-999,0,0.00
2013-4-30,83.0,74.7,69.0,-99.9,-99.9,-99.9,0,0,100,29.99,29.91,0,-999,0,0.00
2013-5-1,74.0,69.8,66.0,-99.9,-99.9,-99.9,0,0,100,29.99,29.91,0,-999,0,0.00
2013-5-2,76.0,70.8,65.0,-99.9,-99.9,-99.9,0,0,100,29.97,29.81,0,-999,0,0.00
2013-5-3,77.0,72.8,68.0,-99.9,-99.9,-99.9,0,0,100,29.83,29.72,0,-999,0,0.00
2013-5-4,75.0,72.4,70.0,-99.9,-99.9,-99.9,0,0,100,29.81,29.69,0,-999,0,0.00
2013-5-5,72.0,69.2,66.0,-99.9,-99.9,-99.9,0,0,100,29.95,29.80,0,-999,0,0.00
2013-5-6,72.0,69.0,66.0,-99.9,-99.9,-99.9,0,0,100,30.02,29.90,0,-999,0,0.00
2013-5-7,73.0,70.0,66.0,-99.9,-99.9,-99.9,0,0,100,30.06,29.97,0,-999,0,0.00
2013-5-8,74.0,72.1,70.0,-99.9,-99.9,-99.9,0,0,100,30.14,30.03,0,-999,0,0.00
2013-5-9,78.0,73.0,65.0,-99.9,-99.9,-99.9,0,0,100,30.16,30.07,0,-999,0,0.00
2013-5-10,84.0,75.1,66.0,-99.9,-99.9,-99.9,0,0,100,30.14,30.00,0,-999,0,0.00
2013-5-11,83.0,77.0,71.0,-99.9,-99.9,-99.9,0,0,100,30.06,30.00,0,-999,0,0.00
2013-5-12,79.0,76.1,72.0,-99.9,-99.9,-99.9,0,0,100,30.05,29.95,0,-999,0,0.00
2013-5-13,79.0,75.0,72.0,-99.9,-99.9,-99.9,0,0,100,30.13,30.01,0,-999,0,0.00
2013-5-14,79.0,72.0,61.0,-99.9,-99.9,-99.9,0,0,100,30.21,30.10,0,-999,0,0.00
2013-5-15,85.0,73.3,63.0,-99.9,-99.9,-99.9,0,0,100,30.21,30.06,0,-999,0,0.00
2013-5-16,79.0,72.6,64.0,-99.9,-99.9,-99.9,0,0,100,30.13,30.00,0,-999,0,0.00
2013-5-17,79.0,74.8,67.0,-99.9,-99.9,-99.9,0,0,100,30.09,30.02,0,-999,0,0.00
2013-5-18,81.0,75.9,69.0,-99.9,-99.9,-99.9,0,0,100,30.11,30.01,0,-999,0,0.00
2013-5-19,81.0,78.4,74.0,-99.9,-99.9,-99.9,0,0,100,30.09,29.98,0,-999,0,0.00
2013-5-20,85.0,76.2,71.0,-99.9,-99.9,-99.9,0,0,100,30.07,29.96,0,-999,0,0.00
2013-5-21,82.0,73.9,68.0,-99.9,-99.9,-99.9,0,0,100,30.03,29.92,0,-999,0,0.00
2013-5-22,82.0,74.8,69.0,-99.9,-99.9,-99.9,0,0,100,29.97,29.89,0,-999,0,0.00
2013-5-23,81.0,77.7,72.0,-99.9,-99.9,-99.9,0,0,100,30.02,29.91,0,-999,0,0.00
2013-5-24,86.0,80.4,77.0,-99.9,-99.9,-99.9,0,0,100,30.07,29.98,0,-999,0,0.00
2013-5-25,88.0,80.3,72.0,-99.9,-99.9,-99.9,0,0,100,30.16,30.05,0,-999,0,0.00
2013-5-26,85.0,74.7,65.0,-99.9,-99.9,-99.9,0,0,100,30.21,30.10,0,-999,0,0.00
2013-5-27,87.0,76.6,66.0,-99.9,-99.9,-99.9,0,0,100,30.17,30.04,0,-999,0,0.00
2013-5-28,87.0,76.7,69.0,-99.9,-99.9,-99.9,0,0,100,30.14,30.01,0,-999,0,0.00
2013-5-29,87.0,76.7,71.0,-99.9,-99.9,-99.9,0,0,100,30.08,30.01,0,-999,0,0.00
2013-5-30,86.0,78.0,73.0,-99.9,-99.9,-99.9,0,0,100,30.07,29.99,0,-999,0,0.00
2013-5-31,85.0,77.5,72.0,-99.9,-99.9,-99.9,0,0,100,30.07,29.99,0,-999,0,0.00
2013-6-1,85.0,76.8,73.0,-99.9,-99.9,-99.9,0,0,100,30.04,29.95,0,-999,0,0.00
2013-6-2,82.0,77.8,72.0,-99.9,-99.9,-99.9,0,0,100,29.99,29.90,0,-999,0,0.00
2013-6-3,82.0,77.8,73.0,-99.9,-99.9,-99.9,0,0,100,30.00,29.90,0,-999,0,0.00
2013-6-4,83.0,77.7,74.0,-99.9,-99.9,-99.9,0,0,100,30.01,29.94,0,-999,0,0.00
2013-6-5,83.0,77.6,74.0,-99.9,-99.9,-99.9,0,0,100,30.01,29.88,0,-999,0,0.00
2013-6-6,79.0,76.3,74.0,-99.9,-99.9,-99.9,0,0,100,29.89,29.67,0,-999,0,0.00
2013-6-7,81.0,78.6,75.0,-99.9,-99.9,-99.9,0,0,100,29.96,29.79,0,-999,0,0.00
2013-6-8,84.0,77.2,72.0,-99.9,-99.9,-99.9,0,0,100,30.10,29.96,0,-999,0,0.00
2013-6-9,89.0,77.9,72.0,-99.9,-99.9,-99.9,0,0,100,30.09,30.01,0,-999,0,0.00
2013-6-10,87.0,79.3,74.0,-99.9,-99.9,-99.9,0,0,100,30.08,30.01,0,-999,0,0.00
2013-6-11,86.0,79.8,74.0,-99.9,-99.9,-99.9,0,0,100,30.08,30.01,0,-999,0,0.00
2013-6-12,86.0,80.7,75.0,-99.9,-99.9,-99.9,0,0,100,30.09,30.00,0,-999,0,0.00
2013-6-13,84.0,81.0,76.0,-99.9,-99.9,-99.9,0,0,100,30.05,29.92,0,-999,0,0.00
2013-6-14,83.0,81.8,81.0,-99.9,-99.9,-99.9,0,0,100,29.96,29.88,0,-999,0,0.00
2013-6-15,84.0,81.4,75.0,-99.9,-99.9,-99.9,0,0,100,30.04,29.92,0,-999,0,0.00
2013-6-16,86.0,80.9,76.0,-99.9,-99.9,-99.9,0,0,100,30.07,30.01,0,-999,0,0.00
2013-6-17,87.0,82.5,77.0,-99.9,-99.9,-99.9,0,0,100,30.07,29.99,0,-999,0,0.00
2013-6-18,87.0,83.0,77.0,-99.9,-99.9,-99.9,0,0,100,30.06,29.97,0,-999,0,0.00
2013-6-19,87.0,83.3,78.0,-99.9,-99.9,-99.9,0,0,100,30.03,29.98,0,-999,0,0.00
2013-6-20,85.0,81.1,76.0,-99.9,-99.9,-99.9,0,0,100,30.10,30.01,0,-999,0,0.00
2013-6-22,89.0,83.1,75.0,-99.9,-99.9,-99.9,0,0,100,30.11,30.04,0,-999,0,0.00
2013-6-23,87.0,78.3,74.0,-99.9,-99.9,-99.9,0,0,100,30.13,30.05,0,-999,0,0.00
2013-6-24,91.0,80.7,74.0,-99.9,-99.9,-99.9,0,0,100,30.17,30.05,0,-999,0,0.00
2013-6-25,90.0,82.4,75.0,-99.9,-99.9,-99.9,0,0,100,30.14,30.01,0,-999,0,0.00
2013-6-26,86.0,78.7,75.0,-99.9,-99.9,-99.9,0,0,100,30.06,30.00,0,-999,0,0.00
2013-6-27,85.0,79.9,73.0,-99.9,-99.9,-99.9,0,0,100,30.04,29.94,0,-999,0,0.00
2013-6-28,85.0,81.5,77.0,-99.9,-99.9,-99.9,0,0,100,29.98,29.86,0,-999,0,0.00
2013-6-29,85.0,81.9,77.0,-99.9,-99.9,-99.9,0,0,100,29.88,29.80,0,-999,0,0.00
2013-6-30,85.0,80.5,76.0,-99.9,-99.9,-99.9,0,0,100,29.88,29.81,0,-999,0,0.00
2013-7-1,79.0,75.5,73.0,-99.9,-99.9,-99.9,0,0,100,29.98,29.85,0,-999,0,0.00
2013-7-2,87.0,76.2,73.0,-99.9,-99.9,-99.9,0,0,100,30.08,29.95,0,-999,0,0.00
2013-7-3,88.0,76.0,73.0,-99.9,-99.9,-99.9,0,0,100,30.09,30.03,0,-999,0,0.00
2013-7-4,89.0,78.5,73.0,-99.9,-99.9,-99.9,0,0,100,30.14,30.05,0,-999,0,0.00
2013-7-5,88.0,77.0,72.0,-99.9,-99.9,-99.9,0,0,100,30.14,30.05,0,-999,0,0.00
2013-7-6,91.0,80.8,74.0,-99.9,-99.9,-99.9,0,0,100,30.11,30.02,0,-999,0,0.00
2013-7-7,90.0,81.1,75.0,-99.9,-99.9,-99.9,0,0,100,30.12,30.01,0,-999,0,0.00
2013-7-8,90.0,80.3,75.0,-99.9,-99.9,-99.9,0,0,100,30.15,30.06,0,-999,0,0.00
2013-7-9,88.0,82.1,74.0,-99.9,-99.9,-99.9,0,0,100,30.16,30.05,0,-999,0,0.00
2013-7-10,85.0,79.2,75.0,-99.9,-99.9,-99.9,0,0,100,30.09,29.97,0,-999,0,0.00
2013-7-11,83.0,79.1,75.0,-99.9,-99.9,-99.9,0,0,100,30.02,29.93,0,-999,0,0.00
2013-7-12,84.0,79.5,75.0,-99.9,-99.9,-99.9,0,0,100,29.96,29.89,0,-999,0,0.00
2013-7-13,83.0,78.2,74.0,-99.9,-99.9,-99.9,0,0,100,29.98,29.91,0,-999,0,0.00
2013-7-14,84.0,76.9,73.0,-99.9,-99.9,-99.9,0,0,100,30.07,29.94,0,-999,0,0.00
2013-7-15,86.0,77.0,73.0,-99.9,-99.9,-99.9,0,0,100,30.10,29.99,0,-999,0,0.00
2013-7-16,87.0,76.5,74.0,-99.9,-99.9,-99.9,0,0,100,30.14,30.06,0,-999,0,0.00
2013-7-17,86.0,75.8,74.0,-99.9,-99.9,-99.9,0,0,100,30.14,30.06,0,-999,0,0.00
2013-7-18,86.0,75.7,72.0,-99.9,-99.9,-99.9,0,0,100,30.11,30.04,0,-999,0,0.00
2013-7-19,86.0,77.0,72.0,-99.9,-99.9,-99.9,0,0,100,30.12,30.05,0,-999,0,0.00
2013-7-20,87.0,78.3,72.0,-99.9,-99.9,-99.9,0,0,100,30.11,30.02,0,-999,0,0.00
2013-7-21,86.0,80.6,74.0,-99.9,-99.9,-99.9,0,0,100,30.12,30.04,0,-999,0,0.00
2013-7-22,85.0,81.4,76.0,-99.9,-99.9,-99.9,0,0,100,30.14,30.06,0,-999,0,0.00
2013-7-23,85.0,83.2,82.0,-99.9,-99.9,-99.9,0,0,100,30.10,29.97,0,-999,0,0.00
2013-7-24,84.0,83.1,82.0,-99.9,-99.9,-99.9,0,0,100,30.01,29.92,0,-999,0,0.00
2013-7-25,84.0,83.3,82.0,-99.9,-99.9,-99.9,0,0,100,30.01,29.89,0,-999,0,0.00
2013-7-26,87.0,82.3,76.0,-99.9,-99.9,-99.9,0,0,100,30.02,29.94,0,-999,0,0.00
2013-7-27,86.0,83.7,82.0,-99.9,-99.9,-99.9,0,0,100,30.00,29.92,0,-999,0,0.00
2013-7-28,87.0,82.2,78.0,-99.9,-99.9,-99.9,0,0,100,30.05,29.93,0,-999,0,0.00
2013-7-29,88.0,79.8,76.0,-99.9,-99.9,-99.9,0,0,100,30.14,30.02,0,-999,0,0.00
2013-7-30,89.0,80.1,75.0,-99.9,-99.9,-99.9,0,0,100,30.17,30.06,0,-999,0,0.00
2013-7-31,88.0,80.8,77.0,-99.9,-99.9,-99.9,0,0,100,30.14,30.00,0,-999,0,0.00
2013-8-1,87.0,81.6,76.0,-99.9,-99.9,-99.9,0,0,100,30.06,29.95,0,-999,0,0.00
2013-8-2,87.0,81.3,75.0,-99.9,-99.9,-99.9,0,0,100,30.04,29.94,0,-999,0,0.00
2013-8-3,87.0,84.5,80.0,-99.9,-99.9,-99.9,0,0,100,30.09,30.00,0,-999,0,0.00
2013-8-4,86.0,84.6,81.0,-99.9,-99.9,-99.9,0,0,100,30.09,30.00,0,-999,0,0.00
2013-8-5,86.0,85.1,84.0,-99.9,-99.9,-99.9,0,0,100,30.04,29.94,0,-999,0,0.00
2013-8-6,89.0,83.0,78.0,-99.9,-99.9,-99.9,0,0,100,29.99,29.89,0,-999,0,0.00
2013-8-7,89.0,81.0,76.0,-99.9,-99.9,-99.9,0,0,100,29.96,29.89,0,-999,0,0.00
2013-8-8,92.0,80.9,76.0,-99.9,-99.9,-99.9,0,0,100,30.02,29.92,0,-999,0,0.00
2013-8-9,88.0,78.0,74.0,-99.9,-99.9,-99.9,0,0,100,30.04,29.96,0,-999,0,0.00
2013-8-10,91.0,82.8,74.0,-99.9,-99.9,-99.9,0,0,100,30.11,30.03,0,-999,0,0.00
2013-8-11,91.0,83.3,75.0,-99.9,-99.9,-99.9,0,0,100,30.14,30.04,0,-999,0,0.00
2013-8-31,84.0,82.5,80.0,-99.9,-99.9,-99.9,0,0,100,29.97,29.92,0,-999,0,0.00
2013-9-1,85.0,82.4,77.0,-99.9,-99.9,-99.9,0,0,100,29.98,29.94,0,-999,0,0.00
2013-9-2,86.0,81.9,76.0,-99.9,-99.9,-99.9,0,0,100,30.02,29.94,0,-999,0,0.00
2013-9-3,86.0,82.4,77.0,-99.9,-99.9,-99.9,0,0,100,29.98,29.94,0,-999,0,0.00
2013-9-4,90.0,81.0,76.0,-99.9,-99.9,-99.9,0,0,100,30.07,29.96,0,-999,0,0.00
2013-9-5,89.0,82.0,74.0,-99.9,-99.9,-99.9,0,0,100,30.09,30.00,0,-999,0,0.00
2013-9-6,85.0,80.0,74.0,-99.9,-99.9,-99.9,0,0,100,30.05,30.01,0,-999,0,0.00